Time;durP1;ratioP1;P1;durP2;ratioP2;P2;SDS_P1;SDS_P2;PMS_P1;PMS_P2;Temp;Humidity;BMP_temperature;BMP_pressure;BME280_temperature;BME280_humidity;BME280_pressure;Samples;Min_cycle;Max_cycle;Signal;HPM_P1;HPM_P2
2022/03/23 00:01:52;;;;;;;0.60;0.60;;;6.10;58.40;;;;;;5008356;28;20767;-74
2022/03/23 00:04:17;;;;;;;0.60;0.60;;;6.10;58.60;;;;;;5009033;28;21993;-74
2022/03/23 00:06:44;;;;;;;0.60;0.60;;;6.00;58.90;;;;;;5013708;28;20642;-74
2022/03/23 00:09:10;;;;;;;0.50;0.50;;;5.90;59.00;;;;;;5013833;28;20264;-74
2022/03/23 00:11:35;;;;;;;1.13;0.70;;;5.90;59.10;;;;;;5014315;28;20327;-74
2022/03/23 00:14:01;;;;;;;7.63;0.60;;;5.90;58.90;;;;;;5009952;28;20192;-74
2022/03/23 00:16:27;;;;;;;2.50;0.30;;;5.90;58.70;;;;;;5009213;28;20718;-74
2022/03/23 00:18:53;;;;;;;0.70;0.50;;;5.90;58.80;;;;;;5011429;28;20184;-74
2022/03/23 00:21:18;;;;;;;0.70;0.70;;;5.80;59.00;;;;;;5012918;28;20217;-74
2022/03/23 00:23:44;;;;;;;4.13;1.20;;;5.80;58.90;;;;;;5014138;28;20644;-73
2022/03/23 00:26:12;;;;;;;0.40;0.40;;;5.70;59.10;;;;;;5015691;28;20191;-75
2022/03/23 00:28:38;;;;;;;0.33;0.33;;;5.70;59.00;;;;;;5008117;28;20188;-74
2022/03/23 00:31:04;;;;;;;0.70;0.50;;;5.70;59.10;;;;;;5012166;28;20250;-74
2022/03/23 00:33:30;;;;;;;0.77;0.40;;;5.70;59.20;;;;;;5013875;28;20222;-74
2022/03/23 00:35:57;;;;;;;2.43;0.30;;;5.60;59.10;;;;;;5009651;28;20193;-74
2022/03/23 00:38:23;;;;;;;2.17;0.67;;;5.60;59.10;;;;;;5014710;28;20227;-73
2022/03/23 00:40:49;;;;;;;0.73;0.63;;;5.60;59.20;;;;;;5010451;28;20192;-73
2022/03/23 00:43:15;;;;;;;2.23;0.70;;;5.60;59.00;;;;;;5014256;28;20218;-73
2022/03/23 00:45:41;;;;;;;0.43;0.43;;;5.60;59.00;;;;;;5006852;28;20187;-73
2022/03/23 00:48:07;;;;;;;0.70;0.47;;;5.60;58.90;;;;;;5013424;28;20172;-73
2022/03/23 00:50:34;;;;;;;0.77;0.70;;;5.60;58.90;;;;;;5008850;28;20220;-73
2022/03/23 00:53:00;;;;;;;0.60;0.60;;;5.60;59.10;;;;;;5013633;28;22157;-73
2022/03/23 00:55:25;;;;;;;0.80;0.57;;;5.60;58.90;;;;;;5013667;28;20278;-74
2022/03/23 00:57:51;;;;;;;0.50;0.50;;;5.60;59.00;;;;;;5010688;28;20176;-73
2022/03/23 01:00:22;;;;;;;0.57;0.53;;;5.60;58.80;;;;;;5011233;28;20185;-73
2022/03/23 01:02:49;;;;;;;2.27;0.40;;;5.60;58.90;;;;;;5014665;28;20212;-73
2022/03/23 01:05:16;;;;;;;0.50;0.50;;;5.60;58.70;;;;;;5016456;28;20188;-73
2022/03/23 01:07:42;;;;;;;0.40;0.40;;;5.50;58.60;;;;;;5014202;28;20180;-74
2022/03/23 01:10:13;;;;;;;0.47;0.43;;;5.50;58.60;;;;;;5012441;28;20195;-74
2022/03/23 01:12:44;;;;;;;0.60;0.60;;;5.50;58.70;;;;;;5012556;28;20549;-75
2022/03/23 01:15:12;;;;;;;0.93;0.50;;;5.50;58.80;;;;;;5013530;28;20193;-76
2022/03/23 01:17:38;;;;;;;0.83;0.60;;;5.40;58.90;;;;;;5013835;28;20663;-74
2022/03/23 01:20:08;;;;;;;0.50;0.50;;;5.40;58.80;;;;;;5011181;28;20214;-73
2022/03/23 01:22:34;;;;;;;2.17;0.70;;;5.40;59.00;;;;;;5016899;28;20215;-74
2022/03/23 01:25:00;;;;;;;0.80;0.80;;;5.30;59.40;;;;;;5012454;28;20184;-74
2022/03/23 01:27:27;;;;;;;1.93;0.60;;;5.30;59.40;;;;;;5008370;28;20177;-74
2022/03/23 01:29:52;;;;;;;0.40;0.40;;;5.30;59.40;;;;;;5010468;28;20184;-73
2022/03/23 01:32:18;;;;;;;1.03;0.60;;;5.20;59.40;;;;;;5012090;28;20195;-73
2022/03/23 01:34:44;;;;;;;1.17;0.87;;;5.20;59.60;;;;;;5003829;28;20185;-73
2022/03/23 01:37:10;;;;;;;0.67;0.67;;;5.20;59.70;;;;;;5011329;28;20738;-73
2022/03/23 01:39:35;;;;;;;1.17;0.60;;;5.20;59.70;;;;;;5009604;28;20189;-73
2022/03/23 01:42:01;;;;;;;1.03;0.30;;;5.20;60.00;;;;;;5012383;28;20233;-72
2022/03/23 01:44:27;;;;;;;0.93;0.50;;;5.10;59.90;;;;;;5012623;28;20200;-74
2022/03/23 01:47:01;;;;;;;2.47;0.70;;;5.10;59.70;;;;;;5015661;28;20188;-74
2022/03/23 01:49:27;;;;;;;0.50;0.50;;;5.10;60.00;;;;;;5018223;28;20250;-74
2022/03/23 01:51:54;;;;;;;2.93;0.50;;;5.00;60.10;;;;;;5013397;28;20619;-75
2022/03/23 01:54:19;;;;;;;2.40;1.00;;;5.00;59.90;;;;;;5015202;28;20189;-74
2022/03/23 01:56:48;;;;;;;0.50;0.50;;;5.00;60.00;;;;;;5015940;28;20187;-75
2022/03/23 01:59:14;;;;;;;0.67;0.67;;;5.00;59.90;;;;;;5017158;28;20539;-75
2022/03/23 02:01:40;;;;;;;3.37;0.60;;;4.90;60.00;;;;;;5019993;28;20279;-72
2022/03/23 02:04:06;;;;;;;2.70;0.53;;;4.90;59.90;;;;;;5017016;28;20188;-74
2022/03/23 02:06:32;;;;;;;0.60;0.50;;;4.90;59.80;;;;;;5014458;28;20226;-73
2022/03/23 02:08:58;;;;;;;0.53;0.53;;;4.90;60.10;;;;;;5017412;28;20858;-73
2022/03/23 02:11:24;;;;;;;0.60;0.60;;;4.80;60.20;;;;;;5015983;28;20188;-74
2022/03/23 02:13:53;;;;;;;1.03;0.60;;;4.80;60.30;;;;;;5017987;28;20192;-74
2022/03/23 02:16:19;;;;;;;0.80;0.70;;;4.70;60.50;;;;;;5017251;28;20183;-74
2022/03/23 02:18:45;;;;;;;0.50;0.50;;;4.70;60.50;;;;;;5019060;28;20181;-74
2022/03/23 02:21:15;;;;;;;0.63;0.63;;;4.70;60.60;;;;;;5042790;28;21104;-75
2022/03/23 02:23:40;;;;;;;0.60;0.60;;;4.60;60.50;;;;;;5014131;28;20691;-73
2022/03/23 02:26:08;;;;;;;1.37;0.60;;;4.60;60.50;;;;;;5014640;28;20187;-73
2022/03/23 02:28:35;;;;;;;0.60;0.50;;;4.60;60.80;;;;;;5012481;28;20196;-73
2022/03/23 02:31:01;;;;;;;0.70;0.70;;;4.60;60.60;;;;;;5010760;28;20181;-73
2022/03/23 02:33:27;;;;;;;0.40;0.40;;;4.50;60.90;;;;;;5013627;28;20636;-74
2022/03/23 02:35:53;;;;;;;0.63;0.60;;;4.50;61.00;;;;;;5012807;28;20176;-73
2022/03/23 02:38:19;;;;;;;0.67;0.67;;;4.40;61.20;;;;;;5013998;28;20221;-73
2022/03/23 02:40:45;;;;;;;0.80;0.80;;;4.40;61.30;;;;;;5018426;28;20959;-73
2022/03/23 02:43:11;;;;;;;1.47;1.10;;;4.40;61.50;;;;;;5015682;28;20224;-73
2022/03/23 02:45:37;;;;;;;0.77;0.77;;;4.30;61.60;;;;;;5016300;28;20185;-73
2022/03/23 02:48:06;;;;;;;2.57;0.93;;;4.30;61.60;;;;;;5016693;28;20172;-73
2022/03/23 02:50:33;;;;;;;2.27;0.90;;;4.20;61.80;;;;;;5014983;28;20781;-73
2022/03/23 03:01:53;;;;;;;1.53;0.80;;;4.10;62.80;;;;;;5011941;28;20317;-73
2022/03/23 03:04:19;;;;;;;1.13;0.67;;;4.00;63.20;;;;;;5010507;28;20456;-73
2022/03/23 03:06:46;;;;;;;0.90;0.90;;;4.00;63.40;;;;;;5011272;28;20192;-74
2022/03/23 03:09:12;;;;;;;0.80;0.80;;;3.90;63.50;;;;;;5016668;28;20192;-74
2022/03/23 03:11:38;;;;;;;0.80;0.80;;;3.80;63.70;;;;;;5012805;28;20184;-74
2022/03/23 03:14:04;;;;;;;1.37;1.20;;;3.80;63.80;;;;;;5014481;28;20177;-74
2022/03/23 03:16:30;;;;;;;2.10;0.80;;;3.70;63.90;;;;;;5012196;28;20185;-73
2022/03/23 03:18:56;;;;;;;0.80;0.80;;;3.70;64.00;;;;;;5011905;28;20196;-74
2022/03/23 03:21:22;;;;;;;2.47;1.33;;;3.60;64.40;;;;;;5007997;28;20722;-73
2022/03/23 03:23:48;;;;;;;3.93;1.07;;;3.50;64.70;;;;;;5013421;28;20192;-73
2022/03/23 03:26:16;;;;;;;0.70;0.70;;;3.50;64.80;;;;;;5013972;28;20184;-73
2022/03/23 03:28:42;;;;;;;1.03;0.70;;;3.40;65.00;;;;;;5013520;28;20239;-73
2022/03/23 03:31:13;;;;;;;1.33;0.70;;;3.40;65.40;;;;;;5012965;28;20290;-73
2022/03/23 03:33:39;;;;;;;1.27;0.70;;;3.40;65.40;;;;;;5019567;28;20188;-74
2022/03/23 03:36:06;;;;;;;6.53;0.70;;;3.40;65.80;;;;;;5009304;28;20193;-73
2022/03/23 03:38:32;;;;;;;2.20;0.87;;;3.40;66.00;;;;;;5015499;28;20189;-72
2022/03/23 03:40:58;;;;;;;0.70;0.70;;;3.40;66.00;;;;;;5016356;28;20271;-73
2022/03/23 03:43:25;;;;;;;4.43;0.80;;;3.40;65.90;;;;;;5015042;28;20235;-73
2022/03/23 03:45:52;;;;;;;0.60;0.60;;;3.40;66.00;;;;;;5012857;28;20291;-72
2022/03/23 03:48:18;;;;;;;2.50;0.63;;;3.40;66.50;;;;;;5012077;28;20169;-73
2022/03/23 03:50:44;;;;;;;1.27;0.70;;;3.50;66.40;;;;;;5010330;28;20181;-76
2022/03/23 03:53:10;;;;;;;1.00;0.70;;;3.50;67.20;;;;;;5009695;28;20192;-74
2022/03/23 03:55:37;;;;;;;1.07;0.43;;;3.50;67.30;;;;;;5016053;28;20812;-73
2022/03/23 03:58:08;;;;;;;2.10;0.40;;;3.50;67.10;;;;;;5015251;28;20270;-74
2022/03/23 04:00:35;;;;;;;0.70;0.70;;;3.60;66.60;;;;;;5013238;28;20269;-73
2022/03/23 04:03:02;;;;;;;2.70;0.63;;;3.60;67.00;;;;;;5007534;28;20213;-74
2022/03/23 04:05:29;;;;;;;1.63;0.60;;;3.60;67.10;;;;;;5014887;28;20192;-74
2022/03/23 04:07:55;;;;;;;0.40;0.40;;;3.60;67.10;;;;;;5016506;28;20188;-74
2022/03/23 04:10:22;;;;;;;0.53;0.53;;;3.60;67.40;;;;;;5009121;28;20323;-73
2022/03/23 04:12:48;;;;;;;0.63;0.63;;;3.60;67.40;;;;;;5010307;28;20193;-75
2022/03/23 04:15:14;;;;;;;1.37;0.63;;;3.50;67.80;;;;;;5012183;28;20188;-73
2022/03/23 04:17:41;;;;;;;0.60;0.53;;;3.60;67.40;;;;;;5018053;28;20177;-73
2022/03/23 04:20:08;;;;;;;3.10;0.70;;;3.60;67.30;;;;;;5009834;28;20181;-73
2022/03/23 04:22:34;;;;;;;1.23;0.57;;;3.50;67.40;;;;;;5014046;28;20242;-73
2022/03/23 04:24:59;;;;;;;0.90;0.90;;;3.50;68.00;;;;;;5009373;28;20212;-73
2022/03/23 04:27:25;;;;;;;1.20;0.50;;;3.50;67.80;;;;;;5017842;28;20188;-74
2022/03/23 04:29:53;;;;;;;3.40;0.40;;;3.50;67.80;;;;;;5004757;28;20631;-73
2022/03/23 04:32:19;;;;;;;0.70;0.70;;;3.50;68.00;;;;;;5015538;28;20255;-74
2022/03/23 04:34:45;;;;;;;1.23;0.63;;;3.50;68.20;;;;;;5007812;28;20244;-73
2022/03/23 04:37:10;;;;;;;1.10;0.53;;;3.50;68.40;;;;;;5010258;28;20188;-73
2022/03/23 04:39:36;;;;;;;2.50;0.90;;;3.50;68.20;;;;;;5013215;28;20179;-74
2022/03/23 04:42:02;;;;;;;3.03;0.80;;;3.50;68.40;;;;;;5017592;28;20802;-74
2022/03/23 04:44:28;;;;;;;1.63;0.70;;;3.40;68.60;;;;;;5013883;28;20215;-73
2022/03/23 04:46:53;;;;;;;0.80;0.73;;;3.40;68.70;;;;;;5010678;28;20185;-74
2022/03/23 04:49:20;;;;;;;0.70;0.70;;;3.40;68.70;;;;;;5011187;28;20204;-73
2022/03/23 04:51:45;;;;;;;2.63;0.80;;;3.40;68.90;;;;;;5010641;28;20200;-73
2022/03/23 04:54:11;;;;;;;3.23;1.00;;;3.40;68.80;;;;;;5012426;28;20185;-73
2022/03/23 04:56:36;;;;;;;0.50;0.50;;;3.30;69.40;;;;;;5012613;28;20188;-72
2022/03/23 04:59:04;;;;;;;2.63;0.80;;;3.30;69.10;;;;;;5012522;28;20445;-73
2022/03/23 05:01:30;;;;;;;1.27;0.70;;;3.40;69.10;;;;;;5013911;28;20196;-73
2022/03/23 05:03:57;;;;;;;2.30;0.90;;;3.40;69.10;;;;;;5010460;28;20186;-74
2022/03/23 05:06:23;;;;;;;0.60;0.60;;;3.40;69.40;;;;;;5014657;28;20184;-73
2022/03/23 05:08:48;;;;;;;1.07;0.70;;;3.40;69.50;;;;;;5011570;28;20271;-74
2022/03/23 05:11:14;;;;;;;0.70;0.70;;;3.40;69.40;;;;;;5012814;28;20191;-73
2022/03/23 05:13:41;;;;;;;3.77;1.00;;;3.40;69.50;;;;;;5015675;28;20239;-72
2022/03/23 05:16:07;;;;;;;0.77;0.77;;;3.40;69.30;;;;;;5010096;28;20204;-74
2022/03/23 05:18:33;;;;;;;1.10;1.10;;;3.40;69.60;;;;;;5007440;28;20208;-73
2022/03/23 05:20:59;;;;;;;0.87;0.87;;;3.50;69.80;;;;;;5013719;28;20184;-73
2022/03/23 05:23:25;;;;;;;4.30;0.83;;;3.50;70.10;;;;;;5015605;28;20208;-69
2022/03/23 05:25:50;;;;;;;0.90;0.90;;;3.50;69.90;;;;;;5017499;28;20176;-69
2022/03/23 05:28:16;;;;;;;1.60;0.77;;;3.50;70.00;;;;;;5014135;28;20216;-69
2022/03/23 05:30:42;;;;;;;0.80;0.80;;;3.60;69.90;;;;;;5016496;28;20181;-69
2022/03/23 05:33:07;;;;;;;3.17;0.80;;;3.60;69.70;;;;;;5009551;28;20255;-69
2022/03/23 05:35:33;;;;;;;1.70;1.00;;;3.70;70.10;;;;;;5012912;28;20177;-71
2022/03/23 05:37:59;;;;;;;1.33;1.10;;;3.70;70.10;;;;;;5014627;28;20247;-70
2022/03/23 05:40:25;;;;;;;1.07;0.83;;;3.70;70.50;;;;;;5015936;28;20663;-69
2022/03/23 05:42:51;;;;;;;0.50;0.50;;;3.80;70.40;;;;;;5012984;28;20823;-70
2022/03/23 05:45:17;;;;;;;1.27;0.67;;;3.90;70.70;;;;;;5018099;28;20184;-69
2022/03/23 05:47:43;;;;;;;1.50;0.90;;;4.00;70.20;;;;;;5017218;28;20176;-69
2022/03/23 05:50:10;;;;;;;1.37;1.20;;;4.00;70.20;;;;;;5014474;28;20189;-72
2022/03/23 05:52:37;;;;;;;1.77;0.70;;;4.10;70.10;;;;;;5028242;28;20905;-70
2022/03/23 05:55:07;;;;;;;2.10;0.90;;;4.20;70.00;;;;;;5015501;28;20560;-70
2022/03/23 05:57:33;;;;;;;2.00;0.87;;;4.30;69.80;;;;;;5014694;28;20192;-72
2022/03/23 05:59:59;;;;;;;1.40;1.13;;;4.30;69.70;;;;;;5006395;28;20190;-70
2022/03/23 06:02:26;;;;;;;0.93;0.80;;;4.40;69.80;;;;;;5016671;28;20705;-70
2022/03/23 06:04:51;;;;;;;0.83;0.83;;;4.50;69.70;;;;;;5012562;28;20216;-71
2022/03/23 06:07:17;;;;;;;4.93;1.00;;;4.60;69.70;;;;;;5009790;28;20303;-71
2022/03/23 06:09:43;;;;;;;0.90;0.90;;;4.60;69.80;;;;;;5009696;28;20181;-72
2022/03/23 06:12:12;;;;;;;0.70;0.60;;;4.70;69.60;;;;;;5015590;28;20181;-70
2022/03/23 06:14:42;;;;;;;3.57;0.97;;;4.80;69.70;;;;;;5011935;28;20185;-71
2022/03/23 06:17:09;;;;;;;2.03;1.07;;;4.80;69.60;;;;;;5012360;28;20194;-73
2022/03/23 06:19:35;;;;;;;2.77;1.17;;;4.90;70.20;;;;;;5010773;28;20613;-74
2022/03/23 06:22:00;;;;;;;2.20;1.20;;;5.00;69.80;;;;;;5008857;28;20662;-73
2022/03/23 06:24:27;;;;;;;1.17;1.07;;;5.10;69.70;;;;;;5016168;28;20263;-74
2022/03/23 06:26:53;;;;;;;4.70;1.40;;;5.10;69.80;;;;;;5012838;28;20211;-74
2022/03/23 06:29:18;;;;;;;3.43;1.10;;;5.20;69.90;;;;;;5017241;28;20208;-74
2022/03/23 06:31:44;;;;;;;1.30;1.20;;;5.30;69.90;;;;;;5014293;28;20331;-73
2022/03/23 06:34:10;;;;;;;1.50;1.40;;;5.30;69.90;;;;;;5012459;28;20984;-74
2022/03/23 06:36:36;;;;;;;1.73;1.40;;;5.40;69.80;;;;;;5008573;28;20196;-73
2022/03/23 06:39:04;;;;;;;2.00;1.03;;;5.40;70.00;;;;;;5014411;28;20268;-74
2022/03/23 06:41:29;;;;;;;1.73;1.60;;;5.40;70.30;;;;;;5012954;28;20204;-74
2022/03/23 06:43:55;;;;;;;1.30;1.20;;;5.50;70.80;;;;;;5016177;28;20176;-75
2022/03/23 06:46:21;;;;;;;2.53;1.20;;;5.50;70.40;;;;;;5008903;28;20315;-73
2022/03/23 06:48:47;;;;;;;1.37;1.30;;;5.60;70.20;;;;;;5011869;28;20184;-73
2022/03/23 06:51:14;;;;;;;0.97;0.80;;;5.70;70.10;;;;;;5011610;28;20311;-74
2022/03/23 06:53:40;;;;;;;1.17;1.13;;;5.70;69.70;;;;;;5012011;28;20181;-73
2022/03/23 06:56:06;;;;;;;0.97;0.97;;;5.80;69.60;;;;;;5015071;28;20192;-75
2022/03/23 06:58:32;;;;;;;0.80;0.80;;;5.80;69.50;;;;;;5009336;28;20744;-75
2022/03/23 07:00:57;;;;;;;1.03;0.87;;;5.90;69.40;;;;;;5015772;28;20184;-73
2022/03/23 07:03:24;;;;;;;0.93;0.93;;;5.90;69.50;;;;;;5017509;28;20177;-74
2022/03/23 07:05:50;;;;;;;6.87;1.17;;;5.90;69.30;;;;;;5017348;28;20286;-73
2022/03/23 07:11:00;;;;;;;5.03;1.30;;;6.10;69.10;;;;;;5007853;28;20188;-75
2022/03/23 07:13:25;;;;;;;3.03;1.00;;;6.10;69.00;;;;;;5006451;28;20185;-73
2022/03/23 07:15:51;;;;;;;0.70;0.70;;;6.20;70.70;;;;;;5010511;28;20621;-72
2022/03/23 07:18:17;;;;;;;2.03;1.10;;;6.30;70.10;;;;;;5008421;28;20678;-73
2022/03/23 07:20:42;;;;;;;1.07;0.97;;;6.30;69.30;;;;;;5003579;28;20262;-71
2022/03/23 07:23:08;;;;;;;1.43;0.80;;;6.40;68.90;;;;;;5008833;28;20219;-73
2022/03/23 07:25:34;;;;;;;3.23;1.37;;;6.50;68.50;;;;;;5009340;28;20188;-72
2022/03/23 07:28:00;;;;;;;1.67;1.23;;;6.50;68.40;;;;;;5007703;28;20228;-72
2022/03/23 07:30:27;;;;;;;1.80;0.80;;;6.60;68.20;;;;;;5009081;28;20227;-72
2022/03/23 07:32:53;;;;;;;2.23;1.30;;;6.60;68.20;;;;;;5004696;28;20190;-72
2022/03/23 07:35:19;;;;;;;4.43;1.00;;;6.70;67.70;;;;;;5003382;28;20221;-72
2022/03/23 07:37:45;;;;;;;1.67;1.03;;;6.80;67.40;;;;;;5005725;28;20288;-72
2022/03/23 07:40:12;;;;;;;0.93;0.90;;;6.80;67.30;;;;;;5011080;28;20229;-72
2022/03/23 07:42:37;;;;;;;1.10;1.10;;;6.90;67.20;;;;;;5010805;28;20714;-72
2022/03/23 07:45:05;;;;;;;1.30;1.00;;;7.00;67.10;;;;;;5011431;28;20184;-72
2022/03/23 07:47:30;;;;;;;1.27;0.80;;;7.10;67.00;;;;;;5009913;28;20173;-72
2022/03/23 07:49:56;;;;;;;4.13;0.70;;;7.10;66.80;;;;;;5007339;28;20189;-72
2022/03/23 07:52:22;;;;;;;0.93;0.93;;;7.20;66.40;;;;;;5009538;28;20784;-73
2022/03/23 07:54:47;;;;;;;2.37;1.03;;;7.30;66.20;;;;;;5009881;28;20184;-73
2022/03/23 07:57:13;;;;;;;2.07;0.83;;;7.40;65.90;;;;;;5007485;28;20807;-73
2022/03/23 07:59:40;;;;;;;1.00;0.80;;;7.50;65.70;;;;;;5003086;28;20219;-72
2022/03/23 08:02:06;;;;;;;4.73;0.87;;;7.60;65.50;;;;;;5001047;28;20709;-72
2022/03/23 08:04:32;;;;;;;1.57;1.10;;;7.80;65.40;;;;;;5005392;28;20268;-73
2022/03/23 08:07:00;;;;;;;7.37;1.30;;;7.80;65.30;;;;;;5005281;28;20296;-72
2022/03/23 08:09:26;;;;;;;0.90;0.60;;;7.90;65.20;;;;;;5008161;28;20644;-72
2022/03/23 08:11:52;;;;;;;0.80;0.70;;;8.10;64.80;;;;;;5011366;28;20205;-73
2022/03/23 08:14:17;;;;;;;1.13;0.97;;;8.20;64.40;;;;;;5009997;28;20184;-70
2022/03/23 08:16:43;;;;;;;0.87;0.87;;;8.30;64.10;;;;;;5001872;28;20200;-71
2022/03/23 08:19:09;;;;;;;2.90;1.10;;;8.50;64.00;;;;;;5003903;28;20184;-71
2022/03/23 08:21:36;;;;;;;1.60;0.80;;;8.80;63.60;;;;;;5007081;28;20695;-70
2022/03/23 08:24:02;;;;;;;4.53;0.93;;;9.10;63.20;;;;;;5001034;28;20264;-71
2022/03/23 08:26:28;;;;;;;1.07;0.80;;;9.50;62.50;;;;;;5013811;28;20194;-71
2022/03/23 08:28:54;;;;;;;1.57;0.97;;;10.00;62.10;;;;;;5006418;28;20196;-72
2022/03/23 08:31:19;;;;;;;3.40;1.10;;;10.50;60.80;;;;;;5009745;28;20206;-72
2022/03/23 08:33:45;;;;;;;8.57;0.93;;;11.10;59.30;;;;;;5001738;28;20349;-71
2022/03/23 08:36:11;;;;;;;1.67;1.57;;;11.80;58.60;;;;;;5012396;28;20740;-72
2022/03/23 08:38:37;;;;;;;4.37;1.27;;;12.80;58.00;;;;;;5012610;28;20193;-72
2022/03/23 08:41:04;;;;;;;1.67;1.15;;;13.80;56.40;;;;;;5010211;28;20176;-73
2022/03/23 08:43:31;;;;;;;2.50;1.38;;;14.60;54.10;;;;;;5007688;28;20184;-72
2022/03/23 08:45:59;;;;;;;1.60;1.50;;;15.10;52.20;;;;;;5023657;28;20879;-73
2022/03/23 08:48:26;;;;;;;1.45;1.35;;;15.30;51.70;;;;;;5012983;28;20557;-72
2022/03/23 08:50:52;;;;;;;3.75;1.30;;;15.10;50.60;;;;;;5007517;28;20276;-72
2022/03/23 08:53:19;;;;;;;1.92;1.65;;;14.60;51.10;;;;;;5011100;28;20188;-71
2022/03/23 08:55:45;;;;;;;2.40;1.77;;;13.90;51.90;;;;;;5029486;28;20644;-72
2022/03/23 08:58:11;;;;;;;8.82;1.67;;;13.50;52.60;;;;;;5013764;28;20185;-71
2022/03/23 09:00:37;;;;;;;3.25;1.58;;;13.70;52.40;;;;;;5012328;28;20991;-71
2022/03/23 09:03:03;;;;;;;2.08;1.83;;;14.10;53.20;;;;;;5009681;28;20208;-72
2022/03/23 09:05:30;;;;;;;1.92;1.45;;;14.50;52.60;;;;;;5008792;28;20196;-71
2022/03/23 09:07:56;;;;;;;1.88;1.20;;;15.20;51.60;;;;;;5003497;28;20183;-73
2022/03/23 09:10:22;;;;;;;7.88;1.60;;;16.20;51.10;;;;;;5007007;28;20188;-73
2022/03/23 09:12:48;;;;;;;2.95;1.50;;;17.10;49.60;;;;;;5006906;28;20700;-72
2022/03/23 09:15:15;;;;;;;3.58;1.50;;;18.00;49.10;;;;;;5004377;28;20208;-74
2022/03/23 09:17:42;;;;;;;2.03;1.42;;;19.00;47.60;;;;;;5006767;28;20274;-74
2022/03/23 09:20:09;;;;;;;3.33;1.85;;;19.50;45.60;;;;;;5008613;28;21049;-74
2022/03/23 09:22:35;;;;;;;7.93;1.95;;;19.50;45.20;;;;;;5009440;28;20228;-73
2022/03/23 09:25:06;;;;;;;2.42;1.60;;;19.20;44.90;;;;;;5013374;28;20189;-72
2022/03/23 09:27:43;;;;;;;5.75;1.63;;;18.60;45.10;;;;;;5004778;28;20941;-72
2022/03/23 09:30:11;;;;;;;4.82;1.55;;;17.90;45.00;;;;;;5008553;28;20207;-72
2022/03/23 09:32:40;;;;;;;2.30;1.80;;;17.40;46.20;;;;;;5011862;28;20299;-71
2022/03/23 09:35:07;;;;;;;1.73;1.42;;;17.60;46.40;;;;;;5016060;28;20184;-74
2022/03/23 09:37:47;;;;;;;5.50;1.52;;;17.70;45.70;;;;;;5010346;28;20177;-74
2022/03/23 09:40:16;;;;;;;2.33;1.38;;;17.50;45.90;;;;;;5010855;28;20259;-73
2022/03/23 09:42:43;;;;;;;3.10;1.50;;;17.70;46.60;;;;;;5013081;28;20224;-71
2022/03/23 09:45:14;;;;;;;3.38;2.33;;;18.40;46.70;;;;;;5008517;28;20177;-72
2022/03/23 09:47:40;;;;;;;3.30;1.60;;;19.20;45.20;;;;;;5010928;28;20193;-72
2022/03/23 09:50:08;;;;;;;2.92;1.80;;;20.10;45.10;;;;;;5011303;28;20207;-73
2022/03/23 09:52:34;;;;;;;1.45;1.38;;;21.20;44.60;;;;;;5018198;28;20696;-75
2022/03/23 09:54:59;;;;;;;1.90;1.80;;;21.90;43.00;;;;;;5008027;28;20184;-74
2022/03/23 09:57:25;;;;;;;1.50;1.40;;;22.60;42.70;;;;;;5013004;28;20820;-72
2022/03/23 09:59:51;;;;;;;2.33;1.77;;;23.20;41.70;;;;;;5011397;28;20650;-73
2022/03/23 10:02:54;;;;;;;5.85;1.88;;;23.60;42.00;;;;;;5013605;28;20223;-73
2022/03/23 10:05:57;;;;;;;1.38;1.35;;;24.20;40.70;;;;;;5010189;28;20191;-72
2022/03/23 10:08:42;;;;;;;2.55;1.50;;;25.10;41.20;;;;;;5015623;28;20268;-73
2022/03/23 10:11:45;;;;;;;1.35;1.35;;;25.90;39.20;;;;;;5013004;28;20246;-73
2022/03/23 10:14:52;;;;;;;2.35;1.48;;;26.60;38.40;;;;;;5008571;28;20299;-71
2022/03/23 10:17:55;;;;;;;11.13;1.55;;;27.30;37.80;;;;;;5014195;28;20188;-73
2022/03/23 10:20:21;;;;;;;1.75;1.65;;;27.60;37.20;;;;;;5013218;28;20191;-73
2022/03/23 10:22:49;;;;;;;1.63;1.58;;;27.70;38.00;;;;;;5010798;28;20220;-73
2022/03/23 10:25:18;;;;;;;2.45;1.55;;;27.80;38.00;;;;;;5008769;28;20565;-73
2022/03/23 10:27:44;;;;;;;2.92;1.85;;;27.80;36.80;;;;;;5015973;28;20215;-73
2022/03/23 10:30:10;;;;;;;1.92;1.83;;;27.70;36.20;;;;;;5010855;28;20185;-71
2022/03/23 10:32:42;;;;;;;1.95;1.58;;;27.90;36.50;;;;;;5007452;28;20188;-73
2022/03/23 10:35:16;;;;;;;1.83;1.58;;;28.10;36.70;;;;;;5015536;28;20189;-73
2022/03/23 10:37:48;;;;;;;1.50;1.40;;;28.00;36.60;;;;;;5015858;28;20209;-73
2022/03/23 10:40:18;;;;;;;1.42;1.42;;;28.00;36.60;;;;;;5012318;28;20258;-73
2022/03/23 10:42:48;;;;;;;2.35;1.70;;;28.10;35.80;;;;;;5016141;28;20300;-74
2022/03/23 10:45:21;;;;;;;3.40;1.77;;;28.20;36.20;;;;;;5012884;28;20226;-73
2022/03/23 10:47:49;;;;;;;1.75;1.67;;;28.00;36.60;;;;;;5021327;28;20544;-73
2022/03/23 10:50:21;;;;;;;2.90;1.63;;;28.00;36.90;;;;;;5010725;28;20177;-73
2022/03/23 10:52:54;;;;;;;1.63;1.55;;;28.00;36.60;;;;;;5021293;28;20227;-73
2022/03/23 10:55:21;;;;;;;4.38;1.55;;;28.20;35.50;;;;;;5013518;28;20177;-74
2022/03/23 10:57:59;;;;;;;2.05;1.92;;;28.40;36.40;;;;;;5018305;28;20192;-73
2022/03/23 11:00:33;;;;;;;3.70;1.67;;;28.50;36.20;;;;;;5012984;28;20176;-73
2022/03/23 11:03:00;;;;;;;2.22;1.48;;;28.60;37.00;;;;;;5005348;28;20668;-73
2022/03/23 11:05:33;;;;;;;2.70;2.15;;;28.70;35.60;;;;;;5009953;28;20204;-73
2022/03/23 11:08:11;;;;;;;2.03;1.58;;;28.60;35.10;;;;;;5013081;28;20177;-72
2022/03/23 11:16:30;;;;;;;3.95;1.80;;;28.50;35.50;;;;;;5013494;28;20188;-72
2022/03/23 11:19:07;;;;;;;2.10;1.65;;;28.50;35.20;;;;;;5018002;28;20191;-73
2022/03/23 11:21:33;;;;;;;3.05;1.40;;;28.50;35.40;;;;;;5010434;28;20208;-73
2022/03/23 11:23:58;;;;;;;1.92;1.65;;;28.70;35.00;;;;;;5011135;28;20644;-73
2022/03/23 11:26:27;;;;;;;1.63;1.52;;;28.70;35.30;;;;;;5011216;28;20677;-73
2022/03/23 11:28:55;;;;;;;3.40;1.67;;;28.80;35.20;;;;;;5012305;28;20181;-71
2022/03/23 11:31:21;;;;;;;1.52;1.42;;;29.00;34.90;;;;;;5019301;28;20184;-72
2022/03/23 11:33:52;;;;;;;4.05;1.55;;;29.10;35.80;;;;;;5015116;28;20187;-73
2022/03/23 11:36:19;;;;;;;1.70;1.60;;;29.10;34.60;;;;;;5006830;28;20177;-73
2022/03/23 11:38:51;;;;;;;1.50;1.40;;;29.10;35.20;;;;;;5015067;28;20694;-73
2022/03/23 11:41:17;;;;;;;2.75;1.25;;;29.40;35.00;;;;;;5012902;28;20177;-73
2022/03/23 11:43:43;;;;;;;3.58;1.58;;;29.30;34.90;;;;;;5015137;28;20184;-73
2022/03/23 11:46:10;;;;;;;1.63;1.52;;;29.30;35.50;;;;;;5010135;28;20177;-72
2022/03/23 11:48:57;;;;;;;2.50;1.85;;;29.20;35.40;;;;;;5014901;28;20184;-73
2022/03/23 11:52:02;;;;;;;1.50;1.40;;;29.30;35.00;;;;;;5004372;28;20192;-73
2022/03/23 11:57:53;;;;;;;1.52;1.45;;;29.10;34.60;;;;;;5030264;28;20299;-71
2022/03/23 12:00:20;;;;;;;1.58;1.52;;;28.80;34.30;;;;;;5030832;28;20203;-73
2022/03/23 12:02:46;;;;;;;4.50;1.63;;;28.90;34.90;;;;;;5033213;28;20273;-73
2022/03/23 12:05:29;;;;;;;2.13;1.33;;;28.90;34.70;;;;;;5027804;28;20180;-73
2022/03/23 12:07:56;;;;;;;1.30;1.30;;;29.00;34.10;;;;;;5029031;28;20275;-72
2022/03/23 12:10:24;;;;;;;2.15;1.55;;;28.80;34.70;;;;;;5023699;28;20275;-73
2022/03/23 12:12:50;;;;;;;1.52;1.38;;;28.70;34.70;;;;;;5028757;28;20246;-73
2022/03/23 12:15:26;;;;;;;2.25;1.60;;;28.50;34.80;;;;;;5036101;28;20203;-73
2022/03/23 12:17:54;;;;;;;6.78;1.85;;;28.40;34.40;;;;;;5012765;28;20187;-72
2022/03/23 12:20:31;;;;;;;3.25;2.00;;;28.50;34.40;;;;;;5031710;28;20183;-71
2022/03/23 12:23:09;;;;;;;2.08;1.60;;;28.70;35.20;;;;;;5009217;28;20271;-72
2022/03/23 12:26:00;;;;;;;1.38;1.38;;;28.80;34.70;;;;;;5030534;28;20934;-71
2022/03/23 12:28:43;;;;;;;2.95;1.85;;;28.50;34.70;;;;;;5026606;28;20199;-71
2022/03/23 12:31:13;;;;;;;3.20;1.75;;;28.50;34.40;;;;;;5012881;28;20717;-71
2022/03/23 12:34:00;;;;;;;1.90;1.80;;;28.60;35.00;;;;;;5021775;28;20204;-74
2022/03/23 12:36:56;;;;;;;2.83;1.88;;;28.60;33.70;;;;;;5010029;28;20198;-72
2022/03/23 12:39:25;;;;;;;1.52;1.52;;;28.60;35.00;;;;;;5011694;28;20291;-70
2022/03/23 12:41:52;;;;;;;4.25;1.77;;;28.80;34.50;;;;;;5002810;28;20575;-71
2022/03/23 12:44:27;;;;;;;2.45;1.65;;;28.90;34.40;;;;;;5015947;28;20299;-72
2022/03/23 12:46:53;;;;;;;1.83;1.58;;;28.80;34.10;;;;;;5010144;28;20675;-72
2022/03/23 12:58:25;;;;;;;3.13;1.67;;;27.80;34.90;;;;;;4990985;28;20187;-72
2022/03/23 13:00:53;;;;;;;2.47;1.67;;;27.70;34.90;;;;;;4991421;28;20205;-73
2022/03/23 13:03:22;;;;;;;2.55;1.60;;;27.90;35.20;;;;;;4990664;28;20220;-73
2022/03/23 13:05:57;;;;;;;1.42;1.33;;;28.00;35.10;;;;;;4983758;28;20236;-73
2022/03/23 13:08:35;;;;;;;2.25;1.55;;;28.10;34.50;;;;;;4987899;28;20189;-73
2022/03/23 13:11:03;;;;;;;1.25;1.20;;;28.20;34.90;;;;;;4988957;28;20564;-73
2022/03/23 13:13:32;;;;;;;1.70;1.60;;;28.30;34.60;;;;;;4990105;28;20287;-72
2022/03/23 13:15:59;;;;;;;1.45;1.35;;;28.20;34.90;;;;;;4986344;28;20193;-72
2022/03/23 13:18:26;;;;;;;1.60;1.50;;;27.40;34.20;;;;;;4997553;28;20699;-73
2022/03/23 13:20:53;;;;;;;1.60;1.50;;;26.60;35.20;;;;;;4988732;28;20181;-73
2022/03/23 13:23:19;;;;;;;1.65;1.33;;;26.30;35.60;;;;;;4990671;28;20227;-73
2022/03/23 13:26:01;;;;;;;1.50;1.40;;;26.20;35.20;;;;;;4986510;28;20200;-73
2022/03/23 13:28:26;;;;;;;2.97;1.40;;;26.10;34.70;;;;;;4992191;28;20687;-73